Enduro
Now Reading
Teasdale conquers the Ravines! Extreme Ravines Extreme Enduro – Report and Results

Teasdale conquers the Ravines! Extreme Ravines Extreme Enduro – Report and Results

South African Travis Teasdale, came, saw and conquered the Dirtbike Action promoted Extreme Ravines Extreme Enduro on Sunday at Helmsley.

Images courtesy of Matthew Rudd Photography

The event which is also a round of the British Extreme Enduro Championships is hugely popular on the Enduro calendar and it certainly gave a huge test to the riders who took part.

Teasdale put on a great show to lead for the entire race giving him a well deserved victory. World Junior Super Enduro champ Will Hoare rode a blinder too in second, which bodes well for the rider who will be taking on the World Enduro Super Series this year. The solid Jono Richardson added a third to his growing collection of podium finishes this year.

Pre race favourite Jonny Walker’s chance of the win ended early with a log stuck in his backwheel and a missed check point, but you can’t keep a champ down, and he persisted to come home in fourth position.

Travis Teasdale – Master of the Ravines

Dirt Hub’s feature Extreme Enduro athlete Charlie Frost continued his improvement in the championship ranks with an excellent 5th.

Dirt Hub’s Feature Racer Charlie Frost finished 5th.

Beta mounted Jack Spencer fended off Chris Windle for the Expert win, while Harold Crawford took the Elite Vets win over Raw Enduro head honcho Wayne Braybrook.

Jason Hirst was a clear winner in the Clubman class ahead of Richard Hawes and Declan Helliwell.

Mark Lodge didn’t look back as he powered his way to the Sportsman Vets win, while Kaylin McHale took the honours in the Sportsman class.

Richard Moorhouse looks a great prospect and won the youth class in convincing style.

The next Dirtbike Action event is the Hawkshead Extreme Enduro on the 19th May, which takes place in the stunning Lake District with camping next to Lake Windermere.

For more info go to http://www.dirtbike-action.co.uk/

Results

Position Rider No Class Rider Total Laps Total Time Lap 1 Lap 2
1 69 1 Championship TRAVIS TEASDALE 2 2:17:01 01:08:42 01:08:19
2 80 1 Championship WILL HOARE 2 2:23:59 01:10:28 01:13:31
3 72 1 Championship JONO RICHARDSON 2 2:25:09 01:12:14 01:12:55
4 22 1 Championship JONNY WALKER 2 2:26:07 01:15:43 01:10:24
5 3 1 Championship CHARLIE FROST 2 2:31:42 01:15:57 01:15:45
6 5 1 Championship GETHIN HUMPHRIES 2 2:31:45 01:13:07 01:18:38
7 10 1 Championship JOE DEAKIN 2 2:32:22 01:13:53 01:18:30
8 7 1 Championship LUKE FLACK 2 2:34:39 01:15:45 01:18:54
9 8 1 Championship JAMES DENT 2 2:35:32 01:15:27 01:20:05
10 6 1 Championship JORDAN SCOTT 2 2:37:12 01:18:49 01:18:23
11 2 1 Championship KEELAN HANCOCK 2 2:38:35 01:23:27 01:15:08
12 4 1 Championship SAM WINTERBURN 2 2:49:49 01:23:49 01:26:00
1 1 Championship ALEX SNOW 2 3:14:27 01:45:35 01:28:51

Position Rider No Class Rider Total Laps Total Time Lap 1 Lap 2
1 18 2 Expert JACK SPENCER 2 2:41:32 01:21:09 01:20:23
2 21 2 Expert CHRIS WINDLE 2 2:42:17 01:22:57 01:19:20
3 14 2 Expert DAVE WOOD 2 2:45:20 01:22:55 01:22:25
4 27 2 Expert SAM LUDATE 2 2:45:34 01:18:31 01:27:03
5 16 2 Expert SUFF SELLA 2 2:52:39 01:23:54 01:28:45
6 19 2 Expert ALED PRICE 2 2:56:49 01:21:30 01:35:20
7 12 2 Expert SPIKE GILBY 2 2:58:26 01:24:44 01:33:43
8 20 2 Expert STUART MACK 2 3:01:49 01:28:55 01:32:54
9 28 2 Expert BARRY DONAGHY 2 3:10:17 01:30:04 01:40:13
10 11 2 Expert DAWSON MARRIOTT 2 3:15:36 01:31:11 01:44:25
11 32 2 Expert STEVIE ROPER 2 3:17:56 01:34:04 01:43:52
12 25 2 Expert BURTS CRAYSTON 2 3:21:55 01:35:27 01:46:28
13 24 2 Expert JOSH BAILEY 2 3:24:26 01:37:02 01:47:24
14 29 2 Expert THOMAS TENNANT 2 3:24:55 01:33:55 01:50:59
15 17 2 Expert GUY NURSELA 2 3:26:30 01:41:51 01:44:38
16 30 2 Expert RYAN HOARE 2 3:26:52 01:38:56 01:47:56
17 23 2 Expert JACK BARWICK 2 3:35:22 01:36:57 01:58:25
18 15 2 Expert MATHIAS SALIN 2 3:42:35 01:46:45 01:55:50
19 26 2 Expert CRAIG ROPER 2 3:47:25 01:51:26 01:55:59
20 31 2 Expert GAV HOUSON 2 2:32:10 01:12:59 01:19:11
DNF 13 2 Expert PAUL BOLTON 1 1:10:36 01:10:36

Position Rider No Class Rider Total Laps Total Time Lap 1 Lap 2
1 42 3 Elite Vets HAROLD CRAWFORD 2 2:54:25 01:25:27 01:28:59
2 39 3 Elite Vets WAYNE BRAYBROOK 2 2:56:37 01:27:16 01:29:21
3 37 3 Elite Vets MARK KIRBY 2 3:49:18 01:58:17 01:51:01
36 3 Elite Vets JAMES BROWN 1 2:26:27 02:26:27
1Lp + (chk 14) 38 3 Elite Vets COLIN BLUNT 1 2:30:37 02:30:37
41 3 Elite Vets SEB CHILVERS 1 2:55:53 02:55:53

Position Rider No Class Rider Total Laps Total Time Lap 1
1 54 4 Clubman JASON HIRST 1 1:30:51 01:30:51
2 60 4 Clubman RICHARD HAWES 1 1:35:06 01:35:06
3 200 4 Clubman DECLAN HELLIWELL 1 1:37:10 01:37:10
4 51 4 Clubman ROBERT TAYLOR 1 1:38:06 01:38:06
5 46 4 Clubman ROBERT ALLEN 1 1:39:23 01:39:23
6 55 4 Clubman LUKE OWEN 1 1:40:14 01:40:14
7 62 4 Clubman SHANE TASKER 1 1:40:53 01:40:53
8 71 4 Clubman LIAM ROBINSON 1 1:41:13 01:41:13
9 61 4 Clubman LEE CORBETT 1 1:41:45 01:41:45
10 75 4 Clubman JACK WINN 1 1:42:57 01:42:57
11 47 4 Clubman DANNY CALKIN 1 1:45:32 01:45:32
12 73 4 Clubman RYAN CRAYSTON 1 1:45:34 01:45:34
13 106 4 Clubman TOMMY JOHNSON 1 1:47:29 01:47:29
14 70 4 Clubman KYLE WALTON 1 1:48:29 01:48:29
15 162 4 Clubman MATTY TEMPLE 1 1:49:35 01:49:35
16 49 4 Clubman CHRIS BROWN 1 1:49:42 01:49:42
17 100 4 Clubman LEE THOMAS 1 1:50:42 01:50:42
18 66 4 Clubman CHLOE RICHARDSON 1 1:55:13 01:55:13
19 58 4 Clubman JAMIE WILLIAMS 1 1:56:48 01:56:48
20 64 4 Clubman JOHN ROBB RLC Army enduro team 1 1:57:57 01:57:57
21 63 4 Clubman JASON MACBETH 1 2:01:18 02:01:18
22 57 4 Clubman JOHN LUMLEY 1 2:08:50 02:08:50
23 52 4 Clubman CAMERON McCANN 1 2:11:12 02:11:12
24 48 4 Clubman SIMON HAMILTON 1 2:11:25 02:11:25
25 59 4 Clubman BEN ROPER 1 2:11:39 02:11:39
26 171 4 Clubman SEB PRESTON 1 2:18:02 02:18:02
27 53 4 Clubman MATTHEW BOULTER 1 2:33:21 02:33:21
28 68 4 Clubman ROSS MAILER 1 2:47:01 02:47:01
29 56 4 Clubman SAM JAMISON 1 2:48:37 02:48:37
30 50 4 Clubman DANIEL TULEY 1 2:49:48 02:49:48
31 65 4 Clubman BILLY STEINMAN 1 3:33:21 03:33:21
32 78 4 Clubman SANTINO MORGAN 1 3:38:30 03:38:30
33 77 4 Clubman LEE BRINKWORTH 1 4:06:37 04:06:37

Position Rider No Class Rider Total Laps Total Time Lap 1
1 93 5 Sportsman Vets MARK LODGE 1 1:51:59 01:51:59
2 91 5 Sportsman Vets ALEX OWEN 1 2:04:21 02:04:21
3 95 5 Sportsman Vets DARREN HEYES 1 2:06:56 02:06:56
4 85 5 Sportsman Vets CHRIS SALT 1 2:09:20 02:09:20
5 99 5 Sportsman Vets MARK RG Racing RAYNOR 1 2:24:14 02:24:14
6 87 5 Sportsman Vets MURRAY SHOTTER 1 2:43:34 2:43:34
7 86 5 Sportsman Vets STEVIE HANNA 1 2:50:49 02:50:49
8 88 5 Sportsman Vets LEE BROADWITH 1 2:53:24 02:53:24
9 90 5 Sportsman Vets PHIL ROPER 1 2:54:30 02:54:30
10 83 5 Sportsman Vets MARK LEWIS 1 3:13:58 03:13:58
11 84 5 Sportsman Vets MATTHEW STREETER 1 3:16:53 03:16:53
12 101 5 Sportsman Vets PAUL McKIE 1 3:25:37 03:25:37
13 81 5 Sportsman Vets SIMON WALKER 1 3:39:34 03:39:34
14 94 5 Sportsman Vets CARL TENNANT 1 3:39:35 03:39:35
15 105 5 Sportsman Vets MARK HODGES 1 3:47:39 03:47:39
16 89 5 Sportsman Vets ROB GREGORY 1 4:06:08 04:06:08
17 103 5 Sportsman Vets BRIAN ROPER 1 4:31:04 04:31:04

Position Rider No Class Rider Total Laps Total Time Lap 1
1 127 6 Sportsman KAYLIN McHALE 1 2:01:01 02:01:01
2 141 6 Sportsman BRODIE HEYES 1 2:01:46 02:01:46
3 123 6 Sportsman BEN TENNANT 1 2:03:14 02:03:14
4 159 6 Sportsman MIKE TAYLOR 1 2:25:41 02:25:41
5 155 6 Sportsman BEN RENNISON 1 2:26:57 02:26:57
6 164 6 Sportsman SHAUN DOUNING 1 2:29:32 02:29:32
7 130 6 Sportsman RICKY FORD 1 2:34:03 02:34:03
8 145 6 Sportsman LIAM CRISP 1 2:41:06 02:41:06
9 148 6 Sportsman WILL REID 1 2:46:30 02:46:30
10 160 6 Sportsman WILLIAM WOLFORTH 1 2:47:29 02:47:29
11 154 6 Sportsman RICHARD SUTCLIFFE 1 2:50:59 02:50:59
12 147 6 Sportsman STEVEN HORGAN 1 3:12:47 03:12:47
13 150 6 Sportsman GRAEME SMITH 1 3:15:18 03:15:18
14 166 6 Sportsman JAMES ROGERS 1 3:19:55 03:19:55
15 118 6 Sportsman BRADLEY CRAGGS 1 3:37:21 03:37:21
16 125 6 Sportsman RICHARD OWENS 1 3:42:02 03:42:02
17 151 6 Sportsman JACOB UDALL 1 3:42:41 03:42:41
18 139 6 Sportsman RORY JONES 1 3:42:53 03:42:53
19 152 6 Sportsman DAN UDALL 1 3:42:55 03:42:55
20 126 6 Sportsman JAMES REDFERN 1 3:44:27 03:44:27
21 153 6 Sportsman DANIEL DICKER 1 3:44:57 03:44:57
22 163 6 Sportsman DAVE SLEE 1 3:47:21 03:47:21
23 122 6 Sportsman JONATHAN COUSINS 1 3:48:20 03:48:20
24 144 6 Sportsman SHAUN CLENNELL 1 3:49:34 03:49:34
25 158 6 Sportsman MICHAEL SMITH 1 3:52:24 03:52:24
26 129 6 Sportsman JOBE URQUHART 1 3:54:51 03:54:51
27 128 6 Sportsman PETER URQUHART 1 3:57:15 03:57:15
28 142 6 Sportsman PAUL DIXON 1 3:58:26 03:58:26
29 133 6 Sportsman ANDY ROBERTS 1 4:02:43 04:02:43

Position Rider No Class Rider Total Laps Total Time Lap 1
1 112 7 Youth RICHARD MOORHOUSE 1 1:49:36 01:49:36
2 114 7 Youth JACOB WILSON 1 2:44:36 02:44:36
3 113 7 Youth JAKE ROPER 1 3:19:40 03:19:40